Time;durP1;ratioP1;P1;durP2;ratioP2;P2;SDS_P1;SDS_P2;PMS_P1;PMS_P2;Temp;Humidity;BMP_temperature;BMP_pressure;BME280_temperature;BME280_humidity;BME280_pressure;Samples;Min_cycle;Max_cycle;Signal;HPM_P1;HPM_P2
2021/05/01 00:02:08;;;;;;;3.00;2.33;;;;;;;38.39;33.09;161311.33;1765253;80;21316;-83
2021/05/01 00:04:40;;;;;;;4.65;2.87;;;;;;;38.52;32.99;161346.17;1762822;81;21356;-84
2021/05/01 00:07:12;;;;;;;3.70;2.80;;;;;;;38.53;32.90;161347.48;1746085;81;21356;-84
2021/05/01 00:09:45;;;;;;;3.98;2.47;;;;;;;38.44;33.00;161323.37;1742020;81;21423;-83
2021/05/01 00:12:17;;;;;;;5.22;3.30;;;;;;;38.48;32.93;161335.44;1737243;82;21321;-84
2021/05/01 00:14:51;;;;;;;3.42;2.60;;;;;;;38.43;32.94;161322.02;1757649;81;21284;-84
2021/05/01 00:17:23;;;;;;;5.22;3.22;;;;;;;38.52;32.87;161344.81;1753020;81;21304;-84
2021/05/01 00:19:55;;;;;;;3.98;2.60;;;;;;;38.62;32.76;161372.97;1754402;81;21226;-83
2021/05/01 00:22:27;;;;;;;5.08;3.30;;;;;;;38.57;32.73;161358.23;1737664;81;21360;-84
2021/05/01 00:25:00;;;;;;;3.42;2.50;;;;;;;38.51;32.73;161342.12;1751796;81;21165;-84
2021/05/01 00:27:32;;;;;;;3.35;2.52;;;;;;;38.28;32.93;161281.84;1767177;81;21328;-85
2021/05/01 00:30:06;;;;;;;4.95;2.92;;;;;;;38.25;32.90;161273.81;1767732;80;21336;-83
2021/05/01 00:32:38;;;;;;;3.50;2.87;;;;;;;38.29;32.85;161283.17;1757853;81;21201;-84
2021/05/01 00:35:11;;;;;;;5.47;3.60;;;;;;;38.27;32.90;161279.17;1764316;81;21300;-83
2021/05/01 00:37:43;;;;;;;4.40;3.22;;;;;;;37.95;33.13;161190.70;1742694;81;21407;-84
2021/05/01 00:40:15;;;;;;;4.70;3.25;;;;;;;38.03;33.07;161214.81;1701715;83;21347;-83
2021/05/01 00:42:47;;;;;;;4.87;3.22;;;;;;;38.10;32.97;161233.53;1699736;83;21816;-87
2021/05/01 00:45:20;;;;;;;3.95;2.80;;;;;;;38.14;32.95;161244.28;1745161;81;21147;-83
2021/05/01 00:47:52;;;;;;;4.45;3.02;;;;;;;38.26;32.81;161276.48;1721123;82;21362;-83
2021/05/01 00:50:24;;;;;;;4.15;2.87;;;;;;;38.26;32.75;161275.13;1715329;81;21373;-84
2021/05/01 00:52:56;;;;;;;3.80;2.67;;;;;;;38.03;32.91;161213.44;1729772;81;21155;-84
2021/05/01 00:55:34;;;;;;;4.35;2.85;;;;;;;38.01;32.91;161209.44;1751900;81;21741;-86
2021/05/01 00:58:06;;;;;;;4.67;2.92;;;;;;;37.90;32.88;161177.28;1737156;81;21293;-85
2021/05/01 01:01:14;;;;;;;4.12;2.62;;;;;;;38.03;32.86;161214.81;1759873;81;21249;-85
2021/05/01 01:03:31;;;;;;;4.05;3.10;;;;;;;38.05;32.76;161220.17;1758084;81;21225;-85
2021/05/01 01:06:05;;;;;;;3.20;2.80;;;;;;;37.95;32.82;161190.70;1746627;81;21300;-86
2021/05/01 01:08:37;;;;;;;3.98;2.80;;;;;;;37.78;32.97;161145.09;1764889;81;21348;-83
2021/05/01 01:11:09;;;;;;;3.25;2.77;;;;;;;37.76;33.02;161141.08;1766760;81;21233;-84
2021/05/01 01:13:42;;;;;;;3.30;2.85;;;;;;;37.84;32.94;161161.23;1767181;81;21407;-84
2021/05/01 01:16:14;;;;;;;3.22;2.58;;;;;;;38.07;32.69;161224.17;1742966;81;21371;-85
2021/05/01 01:19:37;;;;;;;4.10;2.70;;;;;;;38.06;32.68;161222.86;1738836;81;21705;-84
2021/05/01 01:22:16;;;;;;;3.98;2.85;;;;;;;37.86;32.89;161166.55;1714435;81;21348;-84
2021/05/01 01:24:48;;;;;;;4.83;2.92;;;;;;;37.87;32.85;161170.59;1745103;81;21391;-84
2021/05/01 01:27:21;;;;;;;5.62;3.00;;;;;;;37.98;32.71;161201.39;1742349;81;21804;-85
2021/05/01 01:29:53;;;;;;;4.08;2.62;;;;;;;37.87;32.75;161170.59;1738703;81;21379;-86
2021/05/01 01:32:25;;;;;;;4.35;2.75;;;;;;;37.80;32.81;161150.50;1757617;81;21226;-85
2021/05/01 01:34:59;;;;;;;3.85;2.87;;;;;;;37.99;32.63;161204.08;1757113;81;21241;-85
2021/05/01 01:37:31;;;;;;;3.50;2.83;;;;;;;37.60;32.90;161098.20;1743538;81;21729;-84
2021/05/01 01:40:05;;;;;;;3.60;2.60;;;;;;;37.55;32.94;161083.47;1765915;81;21864;-85
2021/05/01 01:42:38;;;;;;;5.83;3.15;;;;;;;37.52;32.95;161075.42;1765960;81;21827;-84
2021/05/01 01:45:12;;;;;;;5.15;2.95;;;;;;;37.31;33.12;161020.52;1760611;81;21356;-84
2021/05/01 01:47:44;;;;;;;2.80;2.50;;;;;;;37.40;33.03;161044.66;1750911;81;21178;-85
2021/05/01 01:50:19;;;;;;;3.92;2.90;;;;;;;37.38;33.00;161039.28;1766948;81;21793;-84
2021/05/01 01:52:52;;;;;;;4.45;2.90;;;;;;;37.37;32.99;161036.61;1766080;81;21281;-84
2021/05/01 01:55:25;;;;;;;3.72;2.70;;;;;;;37.31;33.01;161019.16;1766999;81;21202;-84
2021/05/01 01:57:57;;;;;;;3.83;2.70;;;;;;;37.28;33.03;161011.09;1763725;81;21209;-84
2021/05/01 02:00:30;;;;;;;5.72;3.37;;;;;;;37.24;33.04;161000.42;1743396;81;21752;-84
2021/05/01 02:03:02;;;;;;;6.65;4.03;;;;;;;37.24;33.06;161000.42;1743779;81;21811;-85
2021/05/01 02:05:36;;;;;;;6.17;3.60;;;;;;;37.22;33.04;160995.06;1754056;80;21771;-85
2021/05/01 02:08:09;;;;;;;10.25;3.77;;;;;;;37.48;32.86;161066.06;1742114;81;21736;-84
2021/05/01 02:10:41;;;;;;;5.67;4.03;;;;;;;37.70;32.58;161123.67;1732468;81;21183;-84
2021/05/01 02:13:14;;;;;;;3.60;3.12;;;;;;;37.54;32.65;161080.80;1735961;81;21654;-84
2021/05/01 02:15:47;;;;;;;5.55;3.37;;;;;;;37.52;32.68;161075.42;1742112;81;21214;-85
2021/05/01 02:18:19;;;;;;;5.90;3.60;;;;;;;37.41;32.76;161047.34;1761573;81;21218;-84
2021/05/01 02:20:52;;;;;;;5.55;3.90;;;;;;;37.36;32.80;161032.61;1749056;81;21167;-84
2021/05/01 02:23:24;;;;;;;4.75;3.72;;;;;;;37.36;32.77;161033.92;1732018;81;21147;-84
2021/05/01 02:25:56;;;;;;;6.22;4.33;;;;;;;37.26;32.85;161005.78;1757758;81;21166;-84
2021/05/01 02:28:29;;;;;;;6.00;3.92;;;;;;;37.29;32.79;161015.14;1761589;80;21779;-85
2021/05/01 02:31:01;;;;;;;5.90;4.00;;;;;;;37.15;32.87;160977.64;1759018;81;21859;-84
2021/05/01 02:33:33;;;;;;;8.03;4.95;;;;;;;37.21;32.82;160993.69;1732098;81;21214;-84
2021/05/01 02:36:06;;;;;;;7.47;5.05;;;;;;;37.31;32.71;161019.16;1732207;81;21143;-84
2021/05/01 02:38:39;;;;;;;9.45;4.58;;;;;;;37.13;32.81;160970.97;1732078;81;21540;-85
2021/05/01 02:41:12;;;;;;;7.12;4.83;;;;;;;37.11;32.81;160966.91;1756088;81;21170;-83
2021/05/01 02:43:44;;;;;;;6.97;4.80;;;;;;;37.35;32.57;161031.25;1752282;81;21198;-84
2021/05/01 02:46:16;;;;;;;8.53;5.55;;;;;;;37.14;32.67;160973.66;1732157;83;21835;-83
2021/05/01 02:48:49;;;;;;;7.80;4.60;;;;;;;37.21;32.57;160992.37;1734371;81;21178;-83
2021/05/01 02:51:21;;;;;;;7.62;4.78;;;;;;;37.12;32.69;160968.28;1740438;81;21256;-85
2021/05/01 02:53:53;;;;;;;7.33;4.72;;;;;;;37.21;32.55;160992.37;1700486;83;21279;-84
2021/05/01 02:56:26;;;;;;;6.92;4.85;;;;;;;37.21;32.54;160992.37;1700906;83;21823;-83
2021/05/01 02:58:58;;;;;;;10.38;5.15;;;;;;;37.47;32.27;161063.38;1762229;81;21174;-83
2021/05/01 03:01:30;;;;;;;8.18;5.05;;;;;;;37.36;32.32;161032.61;1746635;81;21895;-84
2021/05/01 03:04:03;;;;;;;8.70;4.60;;;;;;;37.56;32.14;161086.16;1757755;81;21202;-84
2021/05/01 03:06:35;;;;;;;7.12;5.47;;;;;;;37.46;32.18;161060.70;1761003;81;21234;-84
2021/05/01 03:09:08;;;;;;;8.15;4.83;;;;;;;37.22;32.29;160995.06;1736658;81;21245;-84
2021/05/01 03:11:41;;;;;;;9.18;5.20;;;;;;;36.80;32.74;160881.20;1731856;83;21218;-83
2021/05/01 03:14:13;;;;;;;10.08;5.62;;;;;;;36.74;32.82;160866.48;1732107;81;21242;-84
2021/05/01 03:16:45;;;;;;;6.90;4.58;;;;;;;36.72;32.86;160859.80;1737145;82;21372;-84
2021/05/01 03:19:17;;;;;;;6.42;4.17;;;;;;;36.75;32.83;160869.16;1700590;83;21839;-85
2021/05/01 03:21:50;;;;;;;7.50;4.28;;;;;;;36.77;32.81;160873.16;1694357;83;21249;-84
2021/05/01 03:24:22;;;;;;;6.90;4.72;;;;;;;36.70;32.86;160855.75;1761278;81;21683;-84
2021/05/01 03:26:55;;;;;;;8.00;4.92;;;;;;;36.63;32.88;160837.03;1762037;81;21868;-85
2021/05/01 03:29:27;;;;;;;7.58;4.37;;;;;;;36.74;32.83;160865.16;1761655;81;21186;-85
2021/05/01 03:31:59;;;;;;;6.67;4.53;;;;;;;36.70;32.83;160854.44;1738560;81;21203;-84
2021/05/01 03:34:31;;;;;;;6.75;4.20;;;;;;;36.59;32.92;160826.31;1748680;81;21170;-84
2021/05/01 03:37:04;;;;;;;5.90;3.98;;;;;;;36.59;32.92;160826.31;1732186;81;21194;-84
2021/05/01 03:39:37;;;;;;;6.83;4.70;;;;;;;36.60;32.89;160829.00;1733967;81;21226;-84
2021/05/01 03:42:09;;;;;;;6.90;4.42;;;;;;;36.60;32.85;160829.00;1701117;84;21700;-86
2021/05/01 03:44:41;;;;;;;4.58;3.90;;;;;;;36.63;32.80;160837.03;1707848;83;21735;-85
2021/05/01 03:47:14;;;;;;;5.65;3.80;;;;;;;36.65;32.78;160841.03;1744278;81;21186;-84
2021/05/01 03:49:48;;;;;;;6.05;3.77;;;;;;;36.59;32.82;160825.00;1762007;80;21281;-85
2021/05/01 03:52:20;;;;;;;5.62;3.80;;;;;;;36.45;32.95;160788.88;1761647;81;21170;-84
2021/05/01 03:54:53;;;;;;;6.47;4.75;;;;;;;36.55;32.89;160815.64;1741192;81;21314;-85
2021/05/01 03:57:25;;;;;;;5.72;3.75;;;;;;;36.64;32.81;160839.72;1701763;84;21217;-84
2021/05/01 03:59:58;;;;;;;5.12;3.25;;;;;;;36.64;32.81;160838.34;1702420;83;21312;-83
2021/05/01 04:02:30;;;;;;;5.75;3.72;;;;;;;36.64;32.83;160839.72;1707821;83;21350;-82
2021/05/01 04:05:02;;;;;;;5.53;4.00;;;;;;;36.66;32.81;160845.08;1690517;84;21332;-82
2021/05/01 04:07:34;;;;;;;5.75;3.85;;;;;;;36.65;32.82;160841.03;1688789;84;21186;-84
2021/05/01 04:10:07;;;;;;;5.30;3.95;;;;;;;36.59;32.87;160825.00;1689430;83;21178;-86
2021/05/01 04:12:40;;;;;;;7.33;4.62;;;;;;;36.54;32.94;160811.59;1696014;83;21225;-86
2021/05/01 04:15:13;;;;;;;4.55;3.47;;;;;;;36.70;32.79;160855.75;1741706;81;21317;-84
2021/05/01 04:17:45;;;;;;;4.95;3.45;;;;;;;37.12;32.72;160969.59;1739549;81;21352;-84
2021/05/01 04:20:17;;;;;;;6.00;3.80;;;;;;;36.83;32.71;160890.56;1737228;81;21206;-84
2021/05/01 04:22:50;;;;;;;5.75;3.60;;;;;;;36.94;32.62;160920.06;1756491;81;22516;-83
2021/05/01 04:25:23;;;;;;;5.33;3.62;;;;;;;36.87;32.64;160901.28;1759795;81;21874;-84
2021/05/01 04:27:55;;;;;;;3.55;2.98;;;;;;;36.86;32.70;160898.61;1765473;81;22483;-84
2021/05/01 04:30:27;;;;;;;4.12;3.33;;;;;;;36.99;32.57;160933.47;1754940;81;21225;-86
2021/05/01 04:33:00;;;;;;;4.10;3.02;;;;;;;36.98;32.54;160930.78;1758783;81;21166;-83
2021/05/01 04:35:33;;;;;;;4.95;3.10;;;;;;;37.04;32.47;160948.19;1750146;81;21348;-84
2021/05/01 04:38:05;;;;;;;6.72;3.10;;;;;;;36.98;32.53;160930.78;1746208;81;21756;-86
2021/05/01 04:40:38;;;;;;;3.92;2.92;;;;;;;37.07;32.46;160954.87;1756187;81;21230;-85
2021/05/01 04:43:12;;;;;;;4.17;3.17;;;;;;;36.95;32.53;160921.42;1738608;81;21353;-86
2021/05/01 04:45:44;;;;;;;4.62;3.15;;;;;;;36.99;32.53;160933.47;1760526;81;21218;-85
2021/05/01 04:48:17;;;;;;;4.80;3.33;;;;;;;37.08;32.42;160957.56;1766649;81;21388;-86
2021/05/01 04:50:51;;;;;;;5.60;3.45;;;;;;;37.00;32.50;160936.16;1765505;81;21356;-87
2021/05/01 04:53:24;;;;;;;3.98;2.80;;;;;;;36.87;32.59;160901.28;1743646;81;21308;-84
2021/05/01 04:55:57;;;;;;;6.58;3.77;;;;;;;36.80;32.70;160881.20;1737885;81;21340;-83
2021/05/01 04:58:29;;;;;;;5.80;3.50;;;;;;;36.66;32.85;160845.08;1761559;80;21301;-83
2021/05/01 05:01:01;;;;;;;3.90;2.87;;;;;;;36.76;32.83;160871.84;1766201;81;21191;-83
2021/05/01 05:03:33;;;;;;;4.22;3.30;;;;;;;36.74;32.85;160866.48;1752550;80;21864;-85
2021/05/01 05:06:06;;;;;;;3.90;3.37;;;;;;;36.89;32.74;160905.28;1759848;81;21206;-84
2021/05/01 05:08:38;;;;;;;4.10;3.30;;;;;;;36.82;32.81;160886.56;1739298;81;21182;-83
2021/05/01 05:11:10;;;;;;;4.15;3.12;;;;;;;37.01;32.67;160938.83;1744094;81;21230;-81
2021/05/01 05:13:43;;;;;;;4.22;3.05;;;;;;;37.02;32.63;160941.52;1740279;80;21290;-83
2021/05/01 05:16:16;;;;;;;3.10;2.62;;;;;;;37.03;32.66;160942.83;1740251;81;21423;-82
2021/05/01 05:18:49;;;;;;;4.83;2.98;;;;;;;37.18;32.57;160984.33;1746281;81;21384;-85
2021/05/01 05:21:22;;;;;;;4.00;3.10;;;;;;;37.22;32.52;160995.06;1739924;80;21384;-85
2021/05/01 05:23:55;;;;;;;4.35;3.40;;;;;;;37.16;32.58;160978.97;1738765;80;21321;-85
2021/05/01 05:26:28;;;;;;;3.83;3.25;;;;;;;37.22;32.59;160996.38;1750072;80;21839;-83
2021/05/01 05:29:00;;;;;;;4.28;3.22;;;;;;;37.23;32.63;160999.06;1739758;81;21404;-86
2021/05/01 05:31:33;;;;;;;3.70;2.85;;;;;;;37.33;32.60;161024.50;1742106;80;21886;-84
2021/05/01 05:34:05;;;;;;;5.45;3.40;;;;;;;37.37;32.65;161035.30;1748473;80;21297;-85
2021/05/01 05:36:37;;;;;;;5.92;3.27;;;;;;;37.39;32.66;161040.59;1751726;80;21380;-82
2021/05/01 05:39:09;;;;;;;6.72;4.05;;;;;;;37.46;32.65;161059.38;1761944;80;22450;-85
2021/05/01 05:41:47;;;;;;;6.78;3.75;;;;;;;37.36;32.81;161032.61;1752869;80;21245;-85
2021/05/01 05:44:19;;;;;;;7.40;4.03;;;;;;;37.30;33.00;161017.83;1747201;81;21237;-82
2021/05/01 05:46:51;;;;;;;4.83;3.75;;;;;;;37.28;33.11;161012.47;1743959;81;21388;-84
2021/05/01 05:49:25;;;;;;;3.40;2.95;;;;;;;37.33;33.18;161024.50;1744895;81;21242;-82
2021/05/01 05:51:57;;;;;;;4.72;3.72;;;;;;;37.55;33.11;161084.84;1747524;80;21548;-82
2021/05/01 05:54:29;;;;;;;5.30;3.52;;;;;;;37.59;33.12;161095.53;1743991;81;21820;-81
2021/05/01 06:00:17;;;;;;;4.75;2.90;;;;;;;37.76;33.12;161141.08;1746725;80;21344;-85
2021/05/01 06:02:50;;;;;;;4.97;3.60;;;;;;;37.80;33.12;161150.50;1744017;81;21927;-84
2021/05/01 06:05:37;;;;;;;4.03;3.10;;;;;;;37.78;33.10;161145.09;1741160;81;21836;-85
2021/05/01 06:08:10;;;;;;;4.25;3.37;;;;;;;37.93;33.01;161185.34;1745475;81;21836;-81
2021/05/01 06:10:44;;;;;;;5.25;3.35;;;;;;;37.93;32.99;161186.66;1776949;80;21509;-83
2021/05/01 06:13:17;;;;;;;5.92;3.40;;;;;;;37.98;32.97;161198.70;1761872;80;21249;-81
2021/05/01 06:15:49;;;;;;;6.12;3.72;;;;;;;37.96;33.04;161194.70;1760381;79;21906;-81
2021/05/01 06:18:22;;;;;;;5.17;3.50;;;;;;;38.03;33.05;161214.81;1758152;80;21256;-84
2021/05/01 06:20:55;;;;;;;4.17;3.30;;;;;;;38.10;32.94;161232.22;1763687;80;21753;-82
2021/05/01 06:23:28;;;;;;;4.50;3.17;;;;;;;38.20;32.92;161260.33;1761324;80;21430;-82
2021/05/01 06:26:02;;;;;;;7.42;4.85;;;;;;;38.32;32.87;161291.22;1763802;80;21740;-83
2021/05/01 06:28:35;;;;;;;5.92;4.10;;;;;;;38.32;33.06;161292.53;1727166;80;22033;-80
2021/05/01 06:31:08;;;;;;;4.85;3.65;;;;;;;38.40;33.06;161312.64;1763738;79;21230;-84
2021/05/01 06:33:41;;;;;;;7.53;4.05;;;;;;;38.40;33.05;161312.64;1759182;80;21277;-83
2021/05/01 06:36:14;;;;;;;4.37;3.58;;;;;;;38.42;33.06;161319.38;1760092;80;21174;-81
2021/05/01 06:38:46;;;;;;;5.53;3.45;;;;;;;38.55;33.03;161354.19;1759674;80;21150;-81
2021/05/01 06:41:19;;;;;;;4.72;3.70;;;;;;;38.62;33.02;161372.97;1757765;80;21186;-82
2021/05/01 06:44:11;;;;;;;5.40;4.05;;;;;;;38.65;33.00;161379.66;1770617;80;21894;-84
2021/05/01 06:46:44;;;;;;;5.50;3.42;;;;;;;38.76;33.00;161410.56;1759560;79;21169;-82
2021/05/01 06:49:22;;;;;;;4.45;3.17;;;;;;;38.92;32.91;161453.42;1764164;79;21185;-85
2021/05/01 06:51:54;;;;;;;5.15;3.42;;;;;;;38.94;32.94;161458.78;1758626;80;21244;-82
2021/05/01 06:54:27;;;;;;;7.20;3.77;;;;;;;38.93;33.00;161454.78;1759083;80;21762;-84
2021/05/01 06:57:02;;;;;;;5.53;3.62;;;;;;;38.90;33.12;161446.73;1758494;80;21210;-84
2021/05/01 06:59:41;;;;;;;5.22;3.42;;;;;;;38.99;33.10;161472.22;1759429;80;21590;-82
2021/05/01 07:02:14;;;;;;;4.22;3.35;;;;;;;39.03;33.09;161482.91;1760129;80;21335;-82
2021/05/01 07:04:52;;;;;;;4.92;3.58;;;;;;;39.13;33.14;161509.77;1758873;79;21257;-82
2021/05/01 07:07:33;;;;;;;4.90;3.62;;;;;;;39.04;33.29;161485.59;1761324;80;21257;-84
2021/05/01 07:10:17;;;;;;;4.05;3.17;;;;;;;39.13;33.30;161509.77;1763154;80;21427;-83
2021/05/01 07:12:59;;;;;;;5.17;3.97;;;;;;;39.19;33.30;161525.88;1739062;81;21403;-83
2021/05/01 07:15:34;;;;;;;5.60;3.37;;;;;;;39.20;33.36;161529.88;1741482;81;21880;-85
2021/05/01 07:18:14;;;;;;;4.35;3.20;;;;;;;39.30;33.33;161555.37;1742103;81;21335;-82
2021/05/01 07:20:46;;;;;;;6.55;3.55;;;;;;;39.44;33.30;161592.92;1746419;80;21274;-81
2021/05/01 07:23:25;;;;;;;6.47;3.52;;;;;;;39.50;33.28;161610.41;1746151;81;21328;-83
2021/05/01 07:25:58;;;;;;;6.42;3.15;;;;;;;39.62;33.22;161642.59;1743954;81;21761;-83
2021/05/01 07:28:37;;;;;;;4.72;3.10;;;;;;;39.74;33.16;161673.41;1743826;80;21332;-84
2021/05/01 07:31:10;;;;;;;4.40;3.20;;;;;;;39.86;33.12;161705.59;1739353;81;21246;-84
2021/05/01 07:33:51;;;;;;;4.42;3.60;;;;;;;39.91;33.07;161719.03;1745205;81;21230;-85
2021/05/01 07:36:39;;;;;;;4.65;3.15;;;;;;;39.90;33.07;161717.67;1745575;81;21903;-85
2021/05/01 07:39:13;;;;;;;4.08;2.98;;;;;;;39.95;33.00;161731.16;1766476;81;21488;-84
2021/05/01 07:41:48;;;;;;;4.47;3.37;;;;;;;39.99;32.99;161741.84;1752116;81;21749;-84
2021/05/01 07:44:20;;;;;;;6.83;3.70;;;;;;;40.06;32.86;161761.98;1765246;81;21347;-82
2021/05/01 07:46:53;;;;;;;4.45;3.45;;;;;;;40.12;32.72;161778.09;1765713;81;21364;-83
2021/05/01 07:49:26;;;;;;;5.00;3.20;;;;;;;40.10;32.64;161772.72;1757529;81;21210;-82
2021/05/01 07:51:59;;;;;;;4.47;3.47;;;;;;;40.10;32.53;161772.72;1747073;80;21379;-82
2021/05/01 07:54:41;;;;;;;4.35;3.15;;;;;;;40.11;32.43;161774.05;1711166;81;21736;-83
2021/05/01 07:57:05;;;;;;;4.15;3.10;;;;;;;40.13;32.38;161780.78;1757888;81;21360;-82
2021/05/01 07:59:39;;;;;;;3.37;2.72;;;;;;;40.19;32.28;161795.55;1745136;81;21840;-83
2021/05/01 08:02:11;;;;;;;3.72;3.10;;;;;;;40.21;32.13;161800.92;1761177;81;21148;-83
2021/05/01 08:04:43;;;;;;;4.08;2.85;;;;;;;40.23;32.13;161806.25;1685558;84;21279;-83
2021/05/01 08:07:17;;;;;;;4.60;2.62;;;;;;;40.24;32.08;161810.30;1738409;81;21188;-87
2021/05/01 08:09:50;;;;;;;3.77;2.60;;;;;;;40.36;32.05;161841.19;1698987;84;21193;-83
2021/05/01 08:12:22;;;;;;;5.47;2.90;;;;;;;40.43;31.99;161861.31;1687762;83;21712;-81
2021/05/01 08:14:54;;;;;;;5.03;2.98;;;;;;;40.49;31.88;161877.44;1691592;83;21304;-82
2021/05/01 08:17:26;;;;;;;4.65;2.50;;;;;;;40.55;31.77;161893.52;1671260;83;21213;-84
2021/05/01 08:19:59;;;;;;;5.92;3.05;;;;;;;40.54;31.62;161889.52;1694659;83;21205;-83
2021/05/01 08:22:31;;;;;;;3.75;2.90;;;;;;;40.56;31.53;161894.89;1704013;83;21252;-83
2021/05/01 08:25:04;;;;;;;4.78;2.70;;;;;;;40.59;31.55;161904.28;1704475;83;21177;-82
2021/05/01 08:27:38;;;;;;;3.98;2.67;;;;;;;40.66;31.49;161921.72;1706010;83;21170;-83
2021/05/01 08:30:15;;;;;;;4.37;2.58;;;;;;;40.72;31.37;161939.16;1711313;83;21226;-82
2021/05/01 08:32:46;;;;;;;4.85;2.33;;;;;;;40.71;31.17;161936.47;1696315;83;21198;-83
2021/05/01 08:35:19;;;;;;;4.12;2.70;;;;;;;40.77;31.17;161952.61;1695438;83;21229;-82
2021/05/01 08:37:51;;;;;;;4.30;2.70;;;;;;;40.86;31.15;161975.44;1702311;83;21221;-83
2021/05/01 08:40:23;;;;;;;4.30;2.40;;;;;;;40.98;30.89;162008.97;1704509;83;21472;-81
2021/05/01 08:42:56;;;;;;;4.55;2.90;;;;;;;41.02;30.88;162021.09;1713608;83;21147;-83
2021/05/01 08:45:29;;;;;;;5.10;2.40;;;;;;;41.04;30.86;162025.09;1692066;83;21170;-83
2021/05/01 08:48:02;;;;;;;3.47;2.42;;;;;;;41.09;30.55;162039.86;1696422;83;21233;-86
2021/05/01 08:50:39;;;;;;;2.80;2.20;;;;;;;41.13;30.51;162050.62;1696288;83;21267;-83
2021/05/01 08:53:11;;;;;;;2.47;2.22;;;;;;;41.20;30.43;162068.13;1703984;83;21225;-81
2021/05/01 08:55:44;;;;;;;3.02;2.20;;;;;;;41.24;30.35;162080.20;1696015;83;21202;-83
2021/05/01 08:58:16;;;;;;;3.20;2.45;;;;;;;41.31;30.20;162097.66;1707275;83;21419;-89
2021/05/01 09:00:50;;;;;;;2.47;2.05;;;;;;;41.35;30.08;162108.36;1691320;83;21253;-87
2021/05/01 09:03:23;;;;;;;4.35;2.27;;;;;;;41.41;29.99;162124.50;1695546;83;21205;-85
2021/05/01 09:05:57;;;;;;;2.75;2.33;;;;;;;41.47;29.66;162140.58;1692888;83;21178;-85
2021/05/01 09:08:30;;;;;;;2.10;1.90;;;;;;;41.57;29.38;162168.84;1694188;83;21221;-84
2021/05/01 09:11:04;;;;;;;2.92;1.90;;;;;;;41.68;29.12;162197.02;1666258;83;21209;-85
2021/05/01 09:13:48;;;;;;;2.55;2.02;;;;;;;41.81;29.17;162233.30;1692877;83;21737;-86
2021/05/01 09:16:21;;;;;;;3.35;2.27;;;;;;;41.85;29.09;162242.69;1743758;80;21226;-85
2021/05/01 09:18:58;;;;;;;2.77;2.08;;;;;;;41.90;29.04;162258.78;1742013;81;21230;-87
2021/05/01 09:21:34;;;;;;;3.20;2.08;;;;;;;41.95;28.97;162272.28;1747520;80;21221;-86
2021/05/01 09:24:08;;;;;;;3.85;2.08;;;;;;;42.04;28.82;162295.12;1751656;81;21186;-88
2021/05/01 09:26:43;;;;;;;2.70;2.17;;;;;;;42.01;28.75;162287.06;1719620;81;21316;-88
2021/05/01 09:29:39;;;;;;;2.77;2.12;;;;;;;42.00;28.62;162285.75;1747390;81;21201;-88
2021/05/01 09:32:24;;;;;;;2.30;2.10;;;;;;;42.08;28.31;162307.20;1738668;81;21249;-90
2021/05/01 09:34:57;;;;;;;2.40;1.92;;;;;;;42.15;28.36;162324.67;1750301;81;21221;-84
2021/05/01 09:37:34;;;;;;;2.30;1.92;;;;;;;42.18;28.36;162332.75;1725243;81;21313;-85
2021/05/01 09:40:10;;;;;;;4.03;1.90;;;;;;;42.31;28.29;162369.00;1744904;81;21817;-87
2021/05/01 09:42:48;;;;;;;1.75;1.60;;;;;;;42.37;28.24;162383.83;1744442;81;21237;-86
2021/05/01 09:45:20;;;;;;;3.15;2.20;;;;;;;42.43;28.23;162399.92;1746429;81;21246;-85
2021/05/01 09:47:55;;;;;;;3.77;1.90;;;;;;;42.45;28.10;162405.30;1716700;81;21799;-84
2021/05/01 09:50:29;;;;;;;1.98;1.60;;;;;;;42.51;28.05;162422.77;1755099;80;22071;-87
2021/05/01 09:53:07;;;;;;;2.35;1.90;;;;;;;42.58;27.93;162441.61;1748973;81;21302;-86
2021/05/01 09:55:45;;;;;;;13.50;8.28;;;;;;;42.66;27.82;162461.72;1745180;81;21285;-86
2021/05/01 09:58:26;;;;;;;30.70;17.10;;;;;;;42.70;27.73;162473.84;1739589;81;21163;-86
2021/05/01 10:01:16;;;;;;;12.13;9.60;;;;;;;42.74;26.58;162483.30;1745447;81;21266;-85
2021/05/01 10:03:49;;;;;;;6.00;5.08;;;;;;;42.71;25.89;162476.50;1745200;81;21684;-89
2021/05/01 10:06:22;;;;;;;4.92;3.02;;;;;;;42.68;25.30;162468.47;1747206;81;21737;-87
2021/05/01 10:08:57;;;;;;;3.47;2.87;;;;;;;42.80;24.96;162500.77;1748654;80;21737;-86
2021/05/01 10:11:32;;;;;;;2.85;2.45;;;;;;;42.84;24.81;162511.48;1743417;81;22286;-86
2021/05/01 10:14:11;;;;;;;3.58;2.12;;;;;;;42.90;24.35;162528.95;1748704;81;21221;-85
2021/05/01 10:16:56;;;;;;;2.42;1.90;;;;;;;42.93;23.82;162535.72;1750380;81;21234;-84
2021/05/01 10:22:54;;;;;;;2.75;1.82;;;;;;;43.02;23.68;162561.22;1745796;79;21344;-84
2021/05/01 10:25:28;;;;;;;2.65;1.87;;;;;;;43.07;23.46;162573.30;1749431;79;21254;-84
2021/05/01 10:28:07;;;;;;;3.10;2.02;;;;;;;43.04;23.23;162566.59;1754010;79;21226;-85
2021/05/01 10:30:54;;;;;;;3.12;1.98;;;;;;;43.09;23.18;162578.69;1756499;81;21166;-86
2021/05/01 10:33:36;;;;;;;1.85;1.65;;;;;;;43.15;22.94;162594.89;1742563;81;21749;-88
2021/05/01 10:36:26;;;;;;;2.87;2.02;;;;;;;43.19;22.70;162605.59;1759641;79;21340;-87
2021/05/01 10:39:07;;;;;;;2.02;1.72;;;;;;;43.18;22.66;162604.28;1752381;81;21666;-87
2021/05/01 10:41:39;;;;;;;2.42;1.80;;;;;;;43.31;22.80;162637.86;1751510;81;21213;-86
2021/05/01 10:44:18;;;;;;;2.45;2.00;;;;;;;43.40;22.83;162663.42;1751749;81;21384;-86
2021/05/01 10:46:52;;;;;;;3.27;2.00;;;;;;;43.35;22.57;162648.63;1727677;81;21942;-86
2021/05/01 10:49:28;;;;;;;3.02;2.22;;;;;;;43.43;22.71;162671.50;1726062;81;21183;-86
2021/05/01 10:52:13;;;;;;;1.98;1.82;;;;;;;43.55;22.53;162702.44;1694583;82;21159;-88
2021/05/01 10:55:04;;;;;;;2.35;1.85;;;;;;;43.65;22.13;162730.69;1696106;82;21813;-85
2021/05/01 10:57:39;;;;;;;2.27;1.65;;;;;;;43.69;22.28;162740.09;1729787;82;21355;-82
2021/05/01 11:00:13;;;;;;;4.37;2.00;;;;;;;43.79;22.25;162768.34;1728744;82;21403;-86
2021/05/01 11:02:48;;;;;;;38.08;3.47;;;;;;;43.94;22.23;162810.06;1742814;79;21229;-85
2021/05/01 11:05:20;;;;;;;6.85;2.62;;;;;;;43.97;22.20;162816.78;1728832;82;21796;-85
2021/05/01 11:08:14;;;;;;;5.40;1.55;;;;;;;43.99;22.27;162823.48;1747781;81;21748;-86
2021/05/01 11:10:48;;;;;;;6.42;1.90;;;;;;;44.16;22.64;162867.84;1705921;80;21850;-84
2021/05/01 11:13:26;;;;;;;2.50;1.82;;;;;;;44.16;22.64;162867.84;1745675;81;21245;-85
2021/05/01 11:16:08;;;;;;;3.72;2.10;;;;;;;44.28;22.39;162900.17;1718730;82;21869;-84
2021/05/01 11:18:41;;;;;;;3.02;2.10;;;;;;;44.35;21.90;162919.03;1687342;84;21249;-84
2021/05/01 11:21:14;;;;;;;8.53;2.00;;;;;;;44.37;21.52;162924.44;1722141;82;21170;-88
2021/05/01 11:23:49;;;;;;;4.87;2.00;;;;;;;44.37;21.32;162925.75;1697796;84;21336;-88
2021/05/01 11:26:21;;;;;;;11.40;1.92;;;;;;;44.44;21.34;162944.61;1721670;82;21313;-87
2021/05/01 11:28:57;;;;;;;2.67;2.10;;;;;;;44.50;21.23;162959.41;1689998;84;21317;-88
2021/05/01 11:31:32;;;;;;;2.02;1.80;;;;;;;44.51;21.28;162963.41;1723821;82;21353;-89
2021/05/01 11:34:13;;;;;;;3.50;1.67;;;;;;;44.56;21.21;162976.89;1691275;82;21713;-85
2021/05/01 11:36:53;;;;;;;2.58;1.70;;;;;;;44.54;21.06;162971.50;1719188;82;21273;-87
2021/05/01 11:39:27;;;;;;;5.15;1.67;;;;;;;44.56;21.08;162975.52;1720991;82;21254;-87
2021/05/01 11:42:00;;;;;;;2.83;1.90;;;;;;;44.46;21.08;162949.94;1687023;82;21316;-88
2021/05/01 11:44:37;;;;;;;3.58;2.22;;;;;;;44.51;21.08;162963.41;1729822;82;21294;-87
2021/05/01 11:47:13;;;;;;;2.35;1.80;;;;;;;44.53;21.16;162968.81;1725765;82;21290;-87
2021/05/01 11:49:51;;;;;;;2.87;1.98;;;;;;;44.53;21.22;162967.44;1718483;82;21207;-85
2021/05/01 11:52:38;;;;;;;2.33;1.90;;;;;;;44.55;21.24;162974.19;1696671;82;21883;-86
2021/05/01 11:55:25;;;;;;;3.25;1.90;;;;;;;44.55;21.35;162974.19;1718342;82;21392;-86
2021/05/01 11:58:03;;;;;;;9.90;2.00;;;;;;;44.57;21.29;162979.53;1723438;82;21361;-84
2021/05/01 12:00:37;;;;;;;2.37;1.90;;;;;;;44.57;21.25;162979.53;1716945;82;21376;-87
2021/05/01 12:03:23;;;;;;;3.67;1.95;;;;;;;44.64;21.22;162997.08;1720026;82;21372;-85
2021/05/01 12:06:01;;;;;;;2.62;1.90;;;;;;;44.72;20.94;163019.95;1721363;82;21702;-87